Time;durP1;ratioP1;P1;durP2;ratioP2;P2;SDS_P1;SDS_P2;PMS_P1;PMS_P2;Temp;Humidity;BMP_temperature;BMP_pressure;BME280_temperature;BME280_humidity;BME280_pressure;Samples;Min_cycle;Max_cycle;Signal;HPM_P1;HPM_P2
2021/06/15 00:00:52;;;;;;;7.45;5.03;;;17.10;99.90;;;;;;6178440;23;20185;-79
2021/06/15 00:03:19;;;;;;;10.97;4.50;;;17.10;99.90;;;;;;6179350;23;20198;-77
2021/06/15 00:05:46;;;;;;;7.73;3.93;;;17.10;99.90;;;;;;6178436;23;20531;-85
2021/06/15 00:08:13;;;;;;;7.03;3.83;;;17.00;99.90;;;;;;6179226;23;20199;-84
2021/06/15 00:10:40;;;;;;;10.35;4.25;;;17.00;99.90;;;;;;6178936;23;20183;-84
2021/06/15 00:13:08;;;;;;;8.07;3.83;;;17.00;99.90;;;;;;6176561;23;20606;-78
2021/06/15 00:15:35;;;;;;;6.95;3.47;;;17.00;99.90;;;;;;6179038;23;20183;-81
2021/06/15 00:18:03;;;;;;;7.07;3.67;;;17.00;99.90;;;;;;6178985;23;20206;-78
2021/06/15 00:20:31;;;;;;;8.63;3.77;;;16.90;99.90;;;;;;6178452;23;20451;-84
2021/06/15 00:22:58;;;;;;;7.88;3.25;;;16.90;99.90;;;;;;6179484;23;20190;-78
2021/06/15 00:25:25;;;;;;;6.75;3.33;;;17.00;99.90;;;;;;6177393;23;20174;-78
2021/06/15 00:27:52;;;;;;;4.57;2.93;;;16.90;99.90;;;;;;6177540;23;20179;-73
2021/06/15 00:30:22;;;;;;;7.10;3.40;;;16.90;99.90;;;;;;6175110;23;20174;-77
2021/06/15 00:32:50;;;;;;;5.47;3.33;;;16.90;99.90;;;;;;6175473;23;20847;-80
2021/06/15 00:35:17;;;;;;;5.60;3.67;;;16.90;99.90;;;;;;6176667;23;20182;-79
2021/06/15 00:37:44;;;;;;;6.23;3.17;;;16.90;99.90;;;;;;6175377;23;20178;-75
2021/06/15 00:40:11;;;;;;;7.47;3.73;;;16.90;99.90;;;;;;6174377;23;20803;-74
2021/06/15 00:42:38;;;;;;;9.97;3.53;;;16.90;99.90;;;;;;6176641;23;20195;-80
2021/06/15 00:45:07;;;;;;;5.80;3.17;;;16.90;99.90;;;;;;6175176;23;20185;-84
2021/06/15 00:47:36;;;;;;;9.37;3.80;;;16.90;99.90;;;;;;6176877;23;20185;-75
2021/06/15 00:50:03;;;;;;;5.63;3.55;;;16.80;99.90;;;;;;6175772;23;20210;-78
2021/06/15 00:52:30;;;;;;;9.57;4.00;;;16.80;99.90;;;;;;6177212;23;20639;-75
2021/06/15 00:54:59;;;;;;;9.33;5.27;;;16.80;99.90;;;;;;6175777;23;20179;-74
2021/06/15 00:57:26;;;;;;;7.87;4.20;;;16.70;99.90;;;;;;6174837;23;20183;-74
2021/06/15 00:59:53;;;;;;;8.40;3.97;;;16.80;99.90;;;;;;6175059;23;20194;-74
2021/06/15 01:02:20;;;;;;;9.40;3.80;;;16.70;99.90;;;;;;6174555;23;20198;-76
2021/06/15 01:04:48;;;;;;;7.10;3.53;;;16.70;99.90;;;;;;6178719;23;20178;-75
2021/06/15 01:07:24;;;;;;;5.73;3.03;;;16.60;99.90;;;;;;6182568;23;20179;-83
2021/06/15 01:09:57;;;;;;;5.30;3.17;;;16.50;99.90;;;;;;6181753;23;20171;-81
2021/06/15 01:12:35;;;;;;;6.07;2.90;;;16.50;99.90;;;;;;6180888;23;20178;-74
2021/06/15 01:15:09;;;;;;;7.57;2.87;;;16.50;99.90;;;;;;6180105;23;20163;-74
2021/06/15 01:17:38;;;;;;;8.43;3.07;;;16.40;99.90;;;;;;6176868;23;20171;-74
2021/06/15 01:20:17;;;;;;;4.53;2.40;;;16.40;99.90;;;;;;6174677;23;20170;-83
2021/06/15 01:23:19;;;;;;;7.67;2.30;;;16.40;99.90;;;;;;6174666;23;20221;-83
2021/06/15 01:25:59;;;;;;;5.83;2.10;;;16.40;99.90;;;;;;6174858;23;20543;-75
2021/06/15 01:28:32;;;;;;;4.80;1.90;;;16.30;99.90;;;;;;6175029;23;20163;-76
2021/06/15 01:31:03;;;;;;;5.77;1.67;;;16.30;99.90;;;;;;6174760;23;20177;-84
2021/06/15 01:33:33;;;;;;;4.33;1.50;;;16.40;99.90;;;;;;6174716;23;20195;-77
2021/06/15 01:36:01;;;;;;;3.77;1.57;;;16.30;99.90;;;;;;6175104;23;20231;-73
2021/06/15 01:38:32;;;;;;;3.97;1.50;;;16.30;99.90;;;;;;6175189;23;20179;-76
2021/06/15 01:41:04;;;;;;;5.33;1.80;;;16.30;99.90;;;;;;6174955;23;20564;-76
2021/06/15 01:43:37;;;;;;;8.03;2.60;;;16.30;99.90;;;;;;6175635;23;20187;-76
2021/06/15 01:46:05;;;;;;;6.33;1.70;;;16.30;99.90;;;;;;6176238;23;20186;-76
2021/06/15 01:48:39;;;;;;;4.70;1.33;;;16.30;99.90;;;;;;6177342;23;20174;-81
2021/06/15 01:51:08;;;;;;;3.27;1.40;;;16.30;99.90;;;;;;6176423;23;20881;-83
2021/06/15 01:53:37;;;;;;;5.05;1.52;;;16.20;99.90;;;;;;6176752;23;20175;-74
2021/06/15 01:56:05;;;;;;;5.70;1.20;;;16.20;99.90;;;;;;6176319;23;20535;-79
2021/06/15 01:58:35;;;;;;;6.37;1.93;;;16.20;99.90;;;;;;6176414;23;20166;-77
2021/06/15 02:01:03;;;;;;;7.30;1.50;;;16.20;99.90;;;;;;6177438;23;20182;-73
2021/06/15 02:03:31;;;;;;;3.50;1.40;;;16.20;99.90;;;;;;6176455;23;20595;-85
2021/06/15 02:05:59;;;;;;;4.30;1.40;;;16.20;99.90;;;;;;6176087;23;20181;-81
2021/06/15 02:08:29;;;;;;;2.72;1.27;;;16.20;99.90;;;;;;6177620;23;20198;-76
2021/06/15 02:10:56;;;;;;;4.20;1.23;;;16.20;99.90;;;;;;6176319;23;20531;-74
2021/06/15 02:13:24;;;;;;;4.03;1.70;;;16.20;99.90;;;;;;6172368;23;20206;-73
2021/06/15 02:15:52;;;;;;;7.20;2.00;;;16.20;99.90;;;;;;6173858;23;20206;-72
2021/06/15 02:18:21;;;;;;;6.67;2.33;;;16.10;99.90;;;;;;6174774;23;20178;-72
2021/06/15 02:20:49;;;;;;;4.17;1.37;;;16.10;99.90;;;;;;6173413;23;20175;-84
2021/06/15 02:23:20;;;;;;;4.23;1.40;;;16.10;99.90;;;;;;6174933;23;20834;-74
2021/06/15 02:25:51;;;;;;;4.03;1.30;;;16.10;99.90;;;;;;6173864;23;20171;-72
2021/06/15 02:28:18;;;;;;;3.90;1.33;;;16.10;99.90;;;;;;6175820;23;20167;-74
2021/06/15 02:30:45;;;;;;;2.80;1.60;;;16.10;99.90;;;;;;6175360;23;20178;-73
2021/06/15 02:33:16;;;;;;;5.60;1.20;;;16.10;99.90;;;;;;6174709;23;20170;-73
2021/06/15 02:35:47;;;;;;;4.43;1.47;;;16.10;99.90;;;;;;6174795;23;20173;-75
2021/06/15 02:38:18;;;;;;;5.33;1.33;;;16.10;99.90;;;;;;6175077;23;20199;-85
2021/06/15 02:40:46;;;;;;;3.93;1.07;;;16.10;99.90;;;;;;6173825;23;20170;-73
2021/06/15 02:43:15;;;;;;;6.93;2.17;;;16.10;99.90;;;;;;6174645;23;20205;-74
2021/06/15 02:45:43;;;;;;;4.33;1.13;;;16.00;99.90;;;;;;6174722;23;20175;-74
2021/06/15 02:48:13;;;;;;;5.53;1.27;;;16.10;99.90;;;;;;6175550;23;20178;-85
2021/06/15 02:50:42;;;;;;;5.57;1.60;;;16.10;99.90;;;;;;6176897;23;20175;-79
2021/06/15 02:53:15;;;;;;;5.27;1.30;;;16.10;99.90;;;;;;6175797;23;20718;-80
2021/06/15 02:55:48;;;;;;;6.23;1.60;;;16.10;99.90;;;;;;6176243;23;20167;-78
2021/06/15 02:58:15;;;;;;;7.77;1.70;;;16.10;99.90;;;;;;6175131;23;20175;-81
2021/06/15 03:00:42;;;;;;;4.77;1.53;;;16.00;99.90;;;;;;6175655;23;20178;-76
2021/06/15 03:03:09;;;;;;;5.70;1.23;;;16.10;99.90;;;;;;6176042;23;20248;-77
2021/06/15 03:05:36;;;;;;;5.33;1.47;;;16.10;99.90;;;;;;6175402;23;20179;-81
2021/06/15 03:08:04;;;;;;;4.10;1.30;;;16.10;99.90;;;;;;6174795;23;20622;-84
2021/06/15 03:10:32;;;;;;;2.10;1.07;;;16.00;99.90;;;;;;6175312;23;20178;-83
2021/06/15 03:13:08;;;;;;;4.23;1.13;;;16.00;99.90;;;;;;6176717;23;20202;-75
2021/06/15 03:15:41;;;;;;;6.77;1.23;;;15.90;99.90;;;;;;6177064;23;20170;-76
2021/06/15 03:18:16;;;;;;;3.63;0.93;;;16.00;99.90;;;;;;6175974;23;20408;-75
2021/06/15 03:20:45;;;;;;;4.53;1.40;;;15.90;99.90;;;;;;6177749;23;20170;-85
2021/06/15 03:23:19;;;;;;;5.20;1.60;;;16.00;99.90;;;;;;6177583;23;20464;-84
2021/06/15 03:25:47;;;;;;;7.40;1.87;;;15.90;99.90;;;;;;6176797;23;20170;-82
2021/06/15 03:28:20;;;;;;;5.93;1.33;;;16.00;99.90;;;;;;6177574;23;20235;-81
2021/06/15 03:30:48;;;;;;;4.13;1.67;;;16.00;99.90;;;;;;6177592;23;20178;-84
2021/06/15 03:33:17;;;;;;;6.20;1.50;;;15.90;99.90;;;;;;6176907;23;20175;-84
2021/06/15 03:35:50;;;;;;;6.77;1.30;;;15.90;99.90;;;;;;6176969;23;20858;-73
2021/06/15 03:38:19;;;;;;;6.93;1.40;;;15.90;99.90;;;;;;6177060;23;20167;-77
2021/06/15 03:40:49;;;;;;;4.63;1.60;;;15.90;99.90;;;;;;6176769;23;20591;-78
2021/06/15 03:43:19;;;;;;;6.97;1.87;;;15.90;99.90;;;;;;6176478;23;20197;-85
2021/06/15 03:45:49;;;;;;;7.30;1.57;;;15.90;99.90;;;;;;6176799;23;20171;-74
2021/06/15 03:48:17;;;;;;;7.70;1.43;;;15.90;99.90;;;;;;6178249;23;20185;-85
2021/06/15 03:50:44;;;;;;;4.17;1.53;;;15.90;99.90;;;;;;6176346;23;20584;-83
2021/06/15 03:53:13;;;;;;;7.30;1.37;;;15.90;99.90;;;;;;6178974;23;20181;-80
2021/06/15 03:55:42;;;;;;;5.63;1.20;;;15.90;99.90;;;;;;6177909;23;20240;-74
2021/06/15 03:58:11;;;;;;;8.83;1.50;;;15.90;99.90;;;;;;6175790;23;20189;-84
2021/06/15 04:00:40;;;;;;;7.00;1.93;;;15.90;99.90;;;;;;6178213;23;20177;-84
2021/06/15 04:03:10;;;;;;;7.20;1.43;;;15.90;99.90;;;;;;6177882;23;20527;-83
2021/06/15 04:05:39;;;;;;;10.50;1.70;;;15.90;99.90;;;;;;6176850;23;20174;-75
2021/06/15 04:08:08;;;;;;;6.17;1.20;;;15.90;99.90;;;;;;6177133;23;20199;-80
2021/06/15 04:10:37;;;;;;;6.93;1.47;;;16.00;99.90;;;;;;6177342;23;20473;-84
2021/06/15 04:13:07;;;;;;;6.30;1.53;;;16.00;99.90;;;;;;6170595;23;20230;-74
2021/06/15 04:15:35;;;;;;;5.00;1.50;;;15.90;99.90;;;;;;6172805;23;20174;-75
2021/06/15 04:18:05;;;;;;;6.40;1.50;;;15.90;99.90;;;;;;6172027;23;20616;-74
2021/06/15 04:20:39;;;;;;;5.67;1.87;;;15.90;99.90;;;;;;6173700;23;20416;-79
2021/06/15 04:23:08;;;;;;;6.93;1.70;;;15.90;99.90;;;;;;6175469;23;20170;-80
2021/06/15 04:25:40;;;;;;;5.47;1.53;;;15.90;99.90;;;;;;6173316;23;20179;-74
2021/06/15 04:28:09;;;;;;;5.03;1.30;;;15.90;99.90;;;;;;6174407;23;20171;-74
2021/06/15 04:30:36;;;;;;;6.40;1.73;;;15.90;99.90;;;;;;6174694;23;20455;-73
2021/06/15 04:33:06;;;;;;;4.73;1.73;;;15.90;99.90;;;;;;6174254;23;20175;-74
2021/06/15 04:35:36;;;;;;;4.70;1.40;;;15.90;99.90;;;;;;6175106;23;20171;-75
2021/06/15 04:38:09;;;;;;;6.87;1.60;;;16.00;99.90;;;;;;6175553;23;20178;-75
2021/06/15 04:40:38;;;;;;;8.37;1.80;;;16.00;99.90;;;;;;6174911;23;20818;-75
2021/06/15 04:43:27;;;;;;;7.43;1.97;;;16.10;99.90;;;;;;6174341;23;20189;-73
2021/06/15 04:45:57;;;;;;;7.40;1.67;;;16.20;99.90;;;;;;6176203;23;20167;-74
2021/06/15 04:48:30;;;;;;;6.17;1.40;;;16.30;99.90;;;;;;6178134;23;20171;-79
2021/06/15 04:51:00;;;;;;;7.30;1.60;;;16.30;99.90;;;;;;6177912;23;20171;-82
2021/06/15 04:53:30;;;;;;;5.47;1.60;;;16.40;99.90;;;;;;6179432;23;20159;-84
2021/06/15 04:55:59;;;;;;;5.40;2.37;;;16.40;99.90;;;;;;6179388;23;20186;-85
2021/06/15 04:58:30;;;;;;;7.33;1.53;;;16.50;99.90;;;;;;6176505;23;20179;-85
2021/06/15 05:00:59;;;;;;;4.53;1.53;;;16.50;99.90;;;;;;6176868;23;20177;-74
2021/06/15 05:03:27;;;;;;;7.03;1.90;;;16.60;99.90;;;;;;6177652;23;20209;-74
2021/06/15 05:05:54;;;;;;;5.27;1.50;;;16.60;99.90;;;;;;6178194;23;20178;-73
2021/06/15 05:08:25;;;;;;;5.25;1.30;;;16.70;99.90;;;;;;6175665;23;20882;-83
2021/06/15 05:10:56;;;;;;;6.87;1.73;;;16.70;99.90;;;;;;6178632;23;20241;-77
2021/06/15 05:13:24;;;;;;;5.35;1.13;;;16.90;99.90;;;;;;6177653;23;20206;-83
2021/06/15 05:15:55;;;;;;;6.13;1.70;;;17.20;99.90;;;;;;6178964;23;20437;-81
2021/06/15 05:18:23;;;;;;;4.90;1.33;;;17.60;99.90;;;;;;6177765;23;20178;-78
2021/06/15 05:20:50;;;;;;;9.85;2.05;;;17.70;99.90;;;;;;6178541;23;20178;-74
2021/06/15 05:23:21;;;;;;;5.95;1.60;;;17.90;99.90;;;;;;6176589;23;20170;-74
2021/06/15 05:25:48;;;;;;;5.72;1.70;;;18.00;99.90;;;;;;6175524;23;20464;-81
2021/06/15 05:28:15;;;;;;;6.07;1.55;;;18.20;99.90;;;;;;6177674;23;20240;-82
2021/06/15 05:30:41;;;;;;;5.55;1.95;;;18.30;99.90;;;;;;6177706;23;20180;-83
2021/06/15 05:33:11;;;;;;;5.32;1.77;;;18.30;99.90;;;;;;6178813;23;20171;-83
2021/06/15 05:35:38;;;;;;;6.10;1.73;;;18.30;99.90;;;;;;6177325;23;20213;-80
2021/06/15 05:38:05;;;;;;;4.13;1.55;;;18.10;99.90;;;;;;6177261;23;20178;-77
2021/06/15 05:40:31;;;;;;;5.17;1.63;;;18.00;99.90;;;;;;6175692;23;20167;-78
2021/06/15 05:42:58;;;;;;;4.57;1.80;;;17.80;99.90;;;;;;6177879;23;20175;-85
2021/06/15 05:45:26;;;;;;;8.65;1.92;;;18.10;99.90;;;;;;6178824;23;20208;-81
2021/06/15 05:47:55;;;;;;;9.07;1.77;;;18.30;99.90;;;;;;6178787;23;20171;-80
2021/06/15 05:50:24;;;;;;;8.38;1.70;;;18.20;99.90;;;;;;6177198;23;20171;-75
2021/06/15 05:52:51;;;;;;;7.28;2.17;;;18.00;99.90;;;;;;6178570;23;20182;-74
2021/06/15 05:55:19;;;;;;;8.88;1.90;;;17.90;99.90;;;;;;6177962;23;20171;-74
2021/06/15 05:57:46;;;;;;;7.65;2.05;;;17.70;99.90;;;;;;6180255;23;20174;-85
2021/06/15 06:00:13;;;;;;;5.20;1.67;;;17.70;99.90;;;;;;6181392;23;20167;-78
2021/06/15 06:02:40;;;;;;;7.15;1.77;;;17.60;99.90;;;;;;6182144;23;20174;-74
2021/06/15 06:08:09;;;;;;;7.17;2.07;;;17.60;99.90;;;;;;6119776;23;20195;-73
2021/06/15 06:10:38;;;;;;;12.68;2.10;;;17.40;99.90;;;;;;6194121;23;20171;-81
2021/06/15 06:13:06;;;;;;;7.05;1.77;;;17.50;99.90;;;;;;6175581;23;20207;-78
2021/06/15 06:15:34;;;;;;;5.13;1.48;;;17.40;99.90;;;;;;6173866;23;20250;-80
2021/06/15 06:18:07;;;;;;;9.52;2.00;;;17.50;99.90;;;;;;6176765;23;20175;-79
2021/06/15 06:20:34;;;;;;;5.38;1.65;;;17.50;99.90;;;;;;6177643;23;20175;-85
2021/06/15 06:23:03;;;;;;;6.43;1.80;;;17.50;99.90;;;;;;6176011;23;20839;-73
2021/06/15 06:25:30;;;;;;;9.25;1.80;;;17.60;99.90;;;;;;6173864;23;20484;-80
2021/06/15 06:27:57;;;;;;;6.03;1.70;;;17.70;99.90;;;;;;6174903;23;20170;-74
2021/06/15 06:30:24;;;;;;;8.90;1.98;;;17.70;99.90;;;;;;6173588;23;20171;-83
2021/06/15 06:32:51;;;;;;;8.50;1.98;;;17.80;99.90;;;;;;6174201;23;20179;-80
2021/06/15 06:35:18;;;;;;;7.97;1.90;;;17.90;99.90;;;;;;6174972;23;20181;-78
2021/06/15 06:37:45;;;;;;;7.32;1.92;;;17.80;99.90;;;;;;6174083;23;20249;-78
2021/06/15 06:40:15;;;;;;;8.27;2.25;;;17.90;99.90;;;;;;6174479;23;20178;-75
2021/06/15 06:42:41;;;;;;;8.48;1.83;;;17.90;99.90;;;;;;6174875;23;20171;-80
2021/06/15 06:45:10;;;;;;;7.75;1.80;;;18.00;99.90;;;;;;6139054;23;20198;-75
2021/06/15 06:47:37;;;;;;;7.35;1.85;;;18.10;99.90;;;;;;6175374;23;20166;-79
2021/06/15 06:50:05;;;;;;;9.65;1.88;;;18.20;99.90;;;;;;6174797;23;20834;-81
2021/06/15 06:52:32;;;;;;;7.72;1.70;;;18.20;99.90;;;;;;6174616;23;20239;-76
2021/06/15 06:54:59;;;;;;;10.52;2.35;;;18.30;99.90;;;;;;6172939;23;20181;-81
2021/06/15 06:57:27;;;;;;;6.03;1.92;;;18.30;99.90;;;;;;6173293;23;20189;-77
2021/06/15 06:59:53;;;;;;;7.30;2.13;;;18.30;99.90;;;;;;6168084;23;20181;-76
2021/06/15 07:02:20;;;;;;;7.18;2.03;;;18.40;99.90;;;;;;6174925;23;20167;-79
2021/06/15 07:04:47;;;;;;;11.13;2.33;;;18.50;99.90;;;;;;6176189;23;20199;-78
2021/06/15 07:07:14;;;;;;;6.18;1.75;;;18.50;99.90;;;;;;6174781;23;20171;-78
2021/06/15 07:09:41;;;;;;;7.90;1.73;;;18.60;99.90;;;;;;6173790;23;20174;-79
2021/06/15 07:12:08;;;;;;;6.97;1.75;;;19.00;99.90;;;;;;6173366;23;20178;-75
2021/06/15 07:14:36;;;;;;;6.65;2.28;;;19.10;99.90;;;;;;6172869;23;20611;-75
2021/06/15 07:17:03;;;;;;;7.68;2.05;;;19.10;99.90;;;;;;6174706;23;20489;-76
2021/06/15 07:19:30;;;;;;;7.22;1.83;;;19.30;99.90;;;;;;6174192;23;20834;-74
2021/06/15 07:21:57;;;;;;;5.70;1.90;;;19.60;99.90;;;;;;6174261;23;20178;-76
2021/06/15 07:24:24;;;;;;;6.05;1.83;;;20.00;99.90;;;;;;6174212;23;20245;-77
2021/06/15 07:26:50;;;;;;;5.90;1.80;;;20.30;99.90;;;;;;6174929;23;20245;-73
2021/06/15 07:29:17;;;;;;;8.02;2.05;;;20.70;99.90;;;;;;6172383;23;20571;-75
2021/06/15 07:31:45;;;;;;;5.35;1.45;;;21.10;99.90;;;;;;6173548;23;20194;-83
2021/06/15 07:34:12;;;;;;;5.03;1.65;;;21.70;99.90;;;;;;6174093;23;20181;-76
2021/06/15 07:36:39;;;;;;;6.40;2.05;;;22.10;99.90;;;;;;6174433;23;20204;-79
2021/06/15 07:39:06;;;;;;;5.72;1.70;;;22.40;99.90;;;;;;6175514;23;20176;-78
2021/06/15 07:41:33;;;;;;;6.70;1.90;;;22.50;99.90;;;;;;6172682;23;20186;-73
2021/06/15 07:44:00;;;;;;;12.15;2.40;;;22.50;99.90;;;;;;6172157;23;20175;-76
2021/06/15 07:46:26;;;;;;;5.63;1.70;;;22.50;99.90;;;;;;6172963;23;20190;-76
2021/06/15 07:48:54;;;;;;;5.65;2.05;;;22.20;99.90;;;;;;6173293;23;20202;-76
2021/06/15 07:51:21;;;;;;;6.32;2.00;;;21.80;99.90;;;;;;6172176;23;20556;-74
2021/06/15 07:53:48;;;;;;;3.47;1.35;;;22.10;99.90;;;;;;6173999;23;20188;-74
2021/06/15 07:56:15;;;;;;;4.78;1.30;;;22.30;99.90;;;;;;6174145;23;20461;-77
2021/06/15 07:58:42;;;;;;;6.72;1.77;;;22.40;99.90;;;;;;6174909;23;20171;-77
2021/06/15 08:01:09;;;;;;;5.70;1.40;;;22.80;99.90;;;;;;6174198;23;20289;-76
2021/06/15 08:03:35;;;;;;;6.07;1.80;;;23.20;99.90;;;;;;6176452;23;20186;-78
2021/06/15 08:06:04;;;;;;;8.45;2.35;;;23.50;99.90;;;;;;6175208;23;20194;-81
2021/06/15 08:08:33;;;;;;;5.00;1.60;;;23.90;99.90;;;;;;6175101;23;20202;-81
2021/06/15 08:11:00;;;;;;;6.32;1.95;;;24.20;99.90;;;;;;6174791;23;20177;-79
2021/06/15 08:13:27;;;;;;;7.25;1.60;;;24.60;99.90;;;;;;6175269;23;20202;-75
2021/06/15 08:15:54;;;;;;;3.38;1.33;;;24.70;99.90;;;;;;6175259;23;20175;-76
2021/06/15 08:18:20;;;;;;;4.88;1.58;;;24.70;99.90;;;;;;6175242;23;20178;-75
2021/06/15 08:20:50;;;;;;;4.07;1.60;;;25.00;99.90;;;;;;6175898;23;20179;-80
2021/06/15 08:23:19;;;;;;;4.35;1.67;;;25.00;99.90;;;;;;6174431;23;20179;-75
2021/06/15 08:25:45;;;;;;;5.97;1.60;;;25.30;99.90;;;;;;6174438;23;20202;-82
2021/06/15 08:28:12;;;;;;;5.93;1.63;;;25.50;99.90;;;;;;6174835;23;20175;-79
2021/06/15 08:30:40;;;;;;;8.70;2.22;;;25.50;99.90;;;;;;6174792;23;20265;-79
2021/06/15 08:33:08;;;;;;;4.13;1.30;;;25.50;99.90;;;;;;6172831;23;20170;-80
2021/06/15 08:35:35;;;;;;;6.35;1.63;;;25.70;99.90;;;;;;6173641;23;20567;-76
2021/06/15 08:38:02;;;;;;;3.85;1.50;;;25.70;99.90;;;;;;6172847;23;20652;-74
2021/06/15 08:40:31;;;;;;;7.90;1.98;;;26.00;99.90;;;;;;6172957;23;20179;-74
2021/06/15 08:42:58;;;;;;;5.43;1.50;;;26.30;99.90;;;;;;6172919;23;20602;-76
2021/06/15 08:45:25;;;;;;;5.47;1.70;;;26.30;99.90;;;;;;6172604;23;20221;-74
2021/06/15 08:47:53;;;;;;;4.85;1.70;;;26.50;99.90;;;;;;6172946;23;20226;-75
2021/06/15 08:50:23;;;;;;;4.90;1.80;;;26.90;99.90;;;;;;6173261;23;20178;-74
2021/06/15 08:52:51;;;;;;;4.40;1.30;;;26.70;99.90;;;;;;6172644;23;20571;-75
2021/06/15 08:55:19;;;;;;;5.35;1.60;;;26.30;99.90;;;;;;6172736;23;20175;-75
2021/06/15 08:57:55;;;;;;;5.93;2.13;;;26.30;99.90;;;;;;6174196;23;20167;-82
2021/06/15 09:00:22;;;;;;;3.72;1.65;;;26.40;99.90;;;;;;6174403;23;20178;-75
2021/06/15 09:02:48;;;;;;;6.03;1.90;;;26.50;99.90;;;;;;6174435;23;20174;-82
2021/06/15 09:05:18;;;;;;;5.18;1.67;;;26.60;99.90;;;;;;6172647;23;20224;-78
2021/06/15 09:08:06;;;;;;;8.40;2.05;;;26.70;99.90;;;;;;6172827;23;20596;-78
2021/06/15 09:10:37;;;;;;;5.45;1.90;;;26.80;99.90;;;;;;6173335;23;20568;-77
2021/06/15 09:13:06;;;;;;;6.68;2.03;;;26.80;99.90;;;;;;6173647;23;20202;-74
2021/06/15 09:15:33;;;;;;;5.28;1.60;;;27.10;99.90;;;;;;6169589;23;20166;-80
2021/06/15 09:18:00;;;;;;;5.25;1.80;;;27.20;99.90;;;;;;6173318;23;20177;-79
2021/06/15 09:20:30;;;;;;;5.65;2.05;;;27.20;99.90;;;;;;6172314;23;20175;-74
2021/06/15 09:22:59;;;;;;;4.07;1.52;;;27.30;99.90;;;;;;6172493;23;20175;-79
2021/06/15 09:25:27;;;;;;;5.97;1.55;;;27.40;99.90;;;;;;6171860;23;20201;-77
2021/06/15 09:27:54;;;;;;;6.90;1.88;;;27.00;99.90;;;;;;6171986;23;20257;-73
2021/06/15 09:30:26;;;;;;;5.38;1.73;;;26.50;99.90;;;;;;6173311;23;20178;-76
2021/06/15 09:32:54;;;;;;;6.07;1.98;;;26.60;99.90;;;;;;6173085;23;20159;-74
2021/06/15 09:35:22;;;;;;;7.30;1.77;;;26.70;99.90;;;;;;6172446;23;20171;-79
2021/06/15 09:37:51;;;;;;;4.93;1.80;;;26.20;99.90;;;;;;6172704;23;20178;-77
2021/06/15 09:40:20;;;;;;;4.85;1.60;;;26.00;99.90;;;;;;6172813;23;20174;-75
2021/06/15 09:43:00;;;;;;;5.63;1.50;;;26.20;99.90;;;;;;6172390;23;20759;-77
2021/06/15 09:45:29;;;;;;;5.80;1.88;;;26.60;99.90;;;;;;6172300;23;20186;-74
2021/06/15 09:48:22;;;;;;;5.82;2.28;;;26.80;99.90;;;;;;6172257;23;20179;-74
2021/06/15 09:50:49;;;;;;;6.97;1.95;;;26.60;99.90;;;;;;6171951;23;20163;-75
2021/06/15 09:53:28;;;;;;;7.18;1.80;;;26.30;99.90;;;;;;6173971;23;20193;-74
2021/06/15 09:55:56;;;;;;;5.85;1.95;;;26.40;99.90;;;;;;6172592;23;20498;-78
2021/06/15 09:58:43;;;;;;;7.28;2.08;;;26.20;99.90;;;;;;6173137;23;20174;-74
2021/06/15 10:01:24;;;;;;;4.35;1.83;;;26.50;99.90;;;;;;6172611;23;20572;-76
2021/06/15 10:04:16;;;;;;;7.38;2.38;;;26.50;99.90;;;;;;6172173;23;20486;-77
2021/06/15 10:06:45;;;;;;;6.57;2.20;;;26.60;99.90;;;;;;6172591;23;20197;-79
2021/06/15 10:09:12;;;;;;;7.70;1.90;;;26.10;99.90;;;;;;6172982;23;20692;-75
2021/06/15 10:11:45;;;;;;;5.05;1.80;;;25.90;99.90;;;;;;6172093;23;20186;-73
2021/06/15 10:14:12;;;;;;;7.55;1.90;;;25.60;99.90;;;;;;6171816;23;20612;-80
2021/06/15 10:16:41;;;;;;;5.60;1.45;;;25.80;99.90;;;;;;6172445;23;20174;-84
2021/06/15 10:19:08;;;;;;;7.68;1.77;;;26.20;99.90;;;;;;6172534;23;20186;-78
2021/06/15 10:21:34;;;;;;;6.22;1.50;;;26.60;99.90;;;;;;6172789;23;20560;-78
2021/06/15 10:24:04;;;;;;;5.32;1.35;;;26.70;99.90;;;;;;6172512;23;20175;-75
2021/06/15 10:26:31;;;;;;;4.70;1.40;;;26.50;99.90;;;;;;6172633;23;20203;-74
2021/06/15 10:28:58;;;;;;;4.07;1.42;;;26.40;99.90;;;;;;6172917;23;20183;-75
2021/06/15 10:31:30;;;;;;;8.18;1.60;;;26.60;99.90;;;;;;6172570;23;20170;-77
2021/06/15 10:33:58;;;;;;;5.80;1.65;;;26.70;99.90;;;;;;6173687;23;20262;-75
2021/06/15 10:36:42;;;;;;;6.60;1.98;;;26.90;99.90;;;;;;6173810;23;20170;-74
2021/06/15 10:39:16;;;;;;;4.10;1.50;;;27.10;99.90;;;;;;6172496;23;20178;-76
2021/06/15 10:41:43;;;;;;;5.38;1.55;;;27.30;99.90;;;;;;6172963;23;20166;-74
2021/06/15 10:44:13;;;;;;;6.57;1.55;;;27.30;99.90;;;;;;6172265;23;20174;-75
2021/06/15 10:46:41;;;;;;;4.07;1.30;;;27.20;99.90;;;;;;6171582;23;20209;-78
2021/06/15 10:49:11;;;;;;;7.10;1.58;;;27.00;99.90;;;;;;6172124;23;20182;-75
2021/06/15 10:51:52;;;;;;;7.63;1.77;;;26.70;99.90;;;;;;6172423;23;20170;-75
2021/06/15 10:54:40;;;;;;;5.88;1.77;;;26.40;99.90;;;;;;6173233;23;20181;-76
2021/06/15 10:57:24;;;;;;;7.82;1.92;;;26.00;99.90;;;;;;6170636;23;20199;-77
2021/06/15 11:00:08;;;;;;;7.40;2.00;;;25.60;99.90;;;;;;6171322;23;20225;-82
2021/06/15 11:02:37;;;;;;;4.78;1.58;;;25.50;99.90;;;;;;6171288;23;20174;-74
2021/06/15 11:05:39;;;;;;;6.13;1.58;;;25.80;99.90;;;;;;6172801;23;20175;-76
2021/06/15 11:08:20;;;;;;;7.55;2.03;;;26.20;99.90;;;;;;6092125;23;20195;-73
2021/06/15 11:10:51;;;;;;;4.90;1.83;;;26.20;99.90;;;;;;6171784;23;20171;-73
2021/06/15 11:13:18;;;;;;;5.25;1.65;;;26.50;99.90;;;;;;6168389;23;20592;-76
2021/06/15 11:15:58;;;;;;;6.90;1.67;;;26.60;99.90;;;;;;6172122;23;20441;-74
2021/06/15 11:18:26;;;;;;;4.95;1.63;;;26.80;99.90;;;;;;6172043;23;20178;-74
2021/06/15 11:20:54;;;;;;;5.70;1.65;;;26.90;99.90;;;;;;6171018;23;20176;-73
2021/06/15 11:23:26;;;;;;;4.45;1.40;;;26.50;99.90;;;;;;6171741;23;20210;-77
2021/06/15 11:25:59;;;;;;;6.32;1.70;;;26.20;99.90;;;;;;6172141;23;20191;-75
2021/06/15 11:28:49;;;;;;;4.85;1.33;;;26.20;99.90;;;;;;6172861;23;20167;-74
2021/06/15 11:31:32;;;;;;;5.97;1.50;;;26.30;99.90;;;;;;6174433;23;20434;-78
2021/06/15 11:34:26;;;;;;;5.28;1.75;;;26.10;99.90;;;;;;6170987;23;20913;-74
2021/06/15 11:36:58;;;;;;;6.93;1.70;;;26.30;99.90;;;;;;6175094;23;20188;-76
2021/06/15 11:39:34;;;;;;;5.22;1.45;;;26.30;99.90;;;;;;6174851;23;20171;-75
2021/06/15 11:42:31;;;;;;;4.38;1.58;;;26.40;99.90;;;;;;6174579;23;20209;-84
2021/06/15 11:45:11;;;;;;;7.50;1.88;;;26.40;99.90;;;;;;6175423;23;20177;-81
2021/06/15 11:47:41;;;;;;;4.60;1.70;;;26.30;99.90;;;;;;6175228;23;20174;-82
2021/06/15 11:50:20;;;;;;;10.20;2.03;;;26.10;99.90;;;;;;6175194;23;20568;-82
2021/06/15 11:52:53;;;;;;;6.18;1.90;;;25.70;99.90;;;;;;6176869;23;20170;-82
2021/06/15 11:55:23;;;;;;;7.85;1.90;;;25.50;99.90;;;;;;6175415;23;20618;-83
2021/06/15 11:57:56;;;;;;;8.25;1.67;;;25.70;99.90;;;;;;6176869;23;20742;-77
2021/06/15 12:00:23;;;;;;;3.97;1.48;;;25.70;99.90;;;;;;6177080;23;20171;-78
2021/06/15 12:02:50;;;;;;;10.13;1.90;;;25.90;99.90;;;;;;6174742;23;20178;-77
2021/06/15 12:05:18;;;;;;;5.82;1.65;;;26.30;99.90;;;;;;6174009;23;20178;-75
2021/06/15 12:07:53;;;;;;;5.75;1.85;;;26.30;99.90;;;;;;6174378;23;20191;-81
2021/06/15 12:10:23;;;;;;;8.02;2.15;;;26.20;99.90;;;;;;6172530;23;20174;-82
2021/06/15 12:13:09;;;;;;;7.13;1.73;;;26.20;99.90;;;;;;6173943;23;20185;-75
2021/06/15 12:15:51;;;;;;;5.53;1.63;;;26.40;99.90;;;;;;6173561;23;20163;-77
2021/06/15 12:18:42;;;;;;;6.95;1.90;;;26.30;99.90;;;;;;6172795;23;20253;-74
2021/06/15 12:21:12;;;;;;;4.97;1.75;;;26.50;99.90;;;;;;6173368;23;20175;-76
2021/06/15 12:23:43;;;;;;;4.60;1.40;;;26.80;99.90;;;;;;6172687;23;20602;-74
2021/06/15 12:26:20;;;;;;;5.40;1.75;;;26.90;99.90;;;;;;6173257;23;20213;-74
2021/06/15 12:28:49;;;;;;;5.10;1.48;;;27.10;99.90;;;;;;6171757;23;20178;-73
2021/06/15 12:31:19;;;;;;;9.27;1.77;;;27.00;99.90;;;;;;6172742;23;20190;-77
2021/06/15 12:33:48;;;;;;;5.30;1.75;;;27.00;99.90;;;;;;6173140;23;20175;-73
2021/06/15 12:36:17;;;;;;;4.82;1.55;;;27.00;99.90;;;;;;6173519;23;20571;-82
2021/06/15 12:38:46;;;;;;;6.05;1.95;;;27.00;99.90;;;;;;6173169;23;20499;-81
2021/06/15 12:41:14;;;;;;;7.97;1.95;;;27.00;99.90;;;;;;6173061;23;20179;-79
2021/06/15 12:43:43;;;;;;;6.25;1.70;;;27.00;99.90;;;;;;6173450;23;20175;-75
2021/06/15 12:46:18;;;;;;;4.38;1.70;;;27.00;99.90;;;;;;6172397;23;20199;-76
2021/06/15 12:48:47;;;;;;;6.65;1.65;;;26.60;99.90;;;;;;6173216;23;20173;-74
2021/06/15 12:51:15;;;;;;;5.80;1.40;;;26.50;99.90;;;;;;6173233;23;20186;-74
2021/06/15 12:53:42;;;;;;;4.68;1.75;;;26.10;99.90;;;;;;6172466;23;20178;-73
2021/06/15 12:56:16;;;;;;;9.10;2.13;;;25.90;99.90;;;;;;6171854;23;20889;-75
2021/06/15 12:58:44;;;;;;;4.03;1.30;;;25.80;99.90;;;;;;6172980;23;20166;-73
2021/06/15 13:01:20;;;;;;;6.05;1.42;;;25.50;99.90;;;;;;6172868;23;20178;-78
2021/06/15 13:03:51;;;;;;;5.72;1.45;;;25.30;99.90;;;;;;6173040;23;20175;-76